Sunbeam, Idaho
Current Conditions -  °F | °C
As of 1:55 AM on Monday 22 Dec 2014 (Local Time) from KLLJ Reporting Station
Overcast Overcast  
Wind Chill: 30°   Ceiling: 5000
Heat Index: 37°   Visibility: 10mi
Dew Point: 26°   Wind: 9mph
Humidity: 65%   Direction: 250°WSW
Pressure: 29.93"   Gusts: NA
Location:  44.3379°N, 114.824°W
Report Text: KLLJ 220855Z AUTO 25008KT 10SM OVC050 03/M03 A2993 RMK AO2 SLP131 T00281033 55005 $
Loading
Personal Weather Stations






























Interactive Weather Map New forecast layout! Learn more

10-Day Weather Forecast

Advertisements
Track Severe Weather on mobile